Time;durP1;ratioP1;P1;durP2;ratioP2;P2;SDS_P1;SDS_P2;PMS_P1;PMS_P2;Temp;Humidity;BMP_temperature;BMP_pressure;BME280_temperature;BME280_humidity;BME280_pressure;Samples;Min_cycle;Max_cycle;Signal;HPM_P1;HPM_P2
2021/11/29 00:02:24;;;;;;;5.67;3.23;;;;;;;3.90;86.53;94526.84;5097848;28;20206;-68
2021/11/29 00:04:50;;;;;;;4.90;3.07;;;;;;;3.60;86.60;94534.00;5098477;28;20241;-68
2021/11/29 00:07:17;;;;;;;5.83;3.37;;;;;;;3.53;87.33;94530.50;5099473;28;20222;-68
2021/11/29 00:09:44;;;;;;;8.30;3.77;;;;;;;3.56;87.54;94535.34;5099570;28;20206;-68
2021/11/29 00:12:10;;;;;;;5.40;3.23;;;;;;;3.57;87.45;94542.16;5099185;28;20632;-68
2021/11/29 00:14:37;;;;;;;3.87;2.53;;;;;;;3.55;87.63;94533.72;5099187;28;20211;-68
2021/11/29 00:17:04;;;;;;;4.27;2.27;;;;;;;3.50;87.62;94541.22;5098918;28;20233;-68
2021/11/29 00:19:31;;;;;;;4.63;3.23;;;;;;;3.63;88.27;94544.88;5099673;28;20202;-68
2021/11/29 00:21:58;;;;;;;5.30;2.97;;;;;;;3.46;87.36;94540.75;5099360;28;20211;-68
2021/11/29 00:24:24;;;;;;;3.03;2.00;;;;;;;3.29;87.54;94543.69;5098581;28;20223;-68
2021/11/29 00:26:51;;;;;;;3.47;2.40;;;;;;;3.40;87.35;94553.69;5098526;28;20214;-68
2021/11/29 00:29:17;;;;;;;4.23;2.13;;;;;;;3.53;87.12;94551.31;5099350;28;20198;-68
2021/11/29 00:31:44;;;;;;;6.13;2.90;;;;;;;3.53;87.28;94553.91;5099669;28;20251;-68
2021/11/29 00:34:10;;;;;;;6.80;2.20;;;;;;;3.64;87.25;94560.31;5098204;28;21177;-69
2021/11/29 00:36:38;;;;;;;4.60;2.03;;;;;;;3.86;87.61;94563.88;5098919;28;20214;-68
2021/11/29 00:39:05;;;;;;;2.37;2.10;;;;;;;3.71;88.14;94561.22;5098980;28;20222;-68
2021/11/29 00:41:31;;;;;;;2.77;2.53;;;;;;;3.71;87.48;94558.63;5099117;27;20195;-68
2021/11/29 00:43:58;;;;;;;7.53;3.23;;;;;;;3.69;86.79;94563.22;5097806;28;20223;-68
2021/11/29 00:46:24;;;;;;;6.83;3.30;;;;;;;3.65;87.08;94564.53;5099601;27;20554;-69
2021/11/29 00:48:51;;;;;;;5.53;2.10;;;;;;;3.61;87.09;94572.06;5096086;28;20206;-68
2021/11/29 00:51:17;;;;;;;2.97;2.10;;;;;;;3.67;86.92;94567.75;5098877;27;20203;-68
2021/11/29 00:53:46;;;;;;;3.80;3.33;;;;;;;3.90;86.83;94567.75;5097928;28;20207;-68
2021/11/29 00:56:14;;;;;;;5.67;2.83;;;;;;;3.70;87.06;94570.03;5099174;28;20315;-69
2021/11/29 00:58:41;;;;;;;3.70;1.93;;;;;;;3.75;86.39;94572.91;5098389;28;20211;-68
2021/11/29 01:01:07;;;;;;;3.07;2.53;;;;;;;3.74;86.86;94571.31;5097973;28;20213;-68
2021/11/29 01:03:35;;;;;;;3.00;2.53;;;;;;;3.83;86.64;94572.84;5098645;28;20210;-68
2021/11/29 01:06:02;;;;;;;9.53;2.80;;;;;;;3.79;86.82;94576.78;5099135;28;20204;-68
2021/11/29 01:08:28;;;;;;;2.53;2.17;;;;;;;3.61;87.79;94580.69;5098040;28;20209;-69
2021/11/29 01:10:56;;;;;;;2.30;1.10;;;;;;;3.84;86.95;94574.44;5098331;28;20206;-68
2021/11/29 01:13:22;;;;;;;7.10;3.83;;;;;;;3.58;86.72;94575.84;5098197;28;20207;-69
2021/11/29 01:15:49;;;;;;;2.80;2.13;;;;;;;3.48;87.35;94582.28;5097482;28;20222;-69
2021/11/29 01:18:15;;;;;;;2.03;1.83;;;;;;;3.35;88.06;94584.66;5097602;28;20222;-68
2021/11/29 01:20:43;;;;;;;7.03;3.27;;;;;;;3.72;86.83;94583.69;5098842;28;20742;-68
2021/11/29 01:23:11;;;;;;;2.17;1.53;;;;;;;3.61;86.91;94590.31;5097048;28;20206;-68
2021/11/29 01:25:38;;;;;;;1.67;1.53;;;;;;;3.67;86.38;94591.22;5097857;28;20217;-68
2021/11/29 01:28:06;;;;;;;2.40;2.20;;;;;;;3.59;87.17;94592.25;5098312;28;20202;-68
2021/11/29 01:30:33;;;;;;;6.13;2.27;;;;;;;3.40;87.17;94600.53;5098346;28;20200;-68
2021/11/29 01:33:00;;;;;;;7.53;2.67;;;;;;;3.47;87.13;94604.06;5097099;28;20682;-68
2021/11/29 01:35:26;;;;;;;1.77;1.63;;;;;;;3.19;87.69;94600.34;5098279;28;20707;-68
2021/11/29 01:37:53;;;;;;;2.40;1.83;;;;;;;3.28;87.27;94605.31;5097086;28;20235;-69
2021/11/29 01:40:20;;;;;;;2.53;1.57;;;;;;;3.32;87.31;94605.78;5097052;28;20214;-68
2021/11/29 01:42:59;;;;;;;3.93;2.63;;;;;;;3.70;87.06;94603.91;5097207;28;20210;-68
2021/11/29 01:45:28;;;;;;;2.67;1.57;;;;;;;3.59;87.34;94603.50;5097966;28;20214;-68
2021/11/29 01:47:54;;;;;;;3.53;1.73;;;;;;;2.99;88.04;94603.56;5094073;28;20201;-68
2021/11/29 01:50:21;;;;;;;2.27;1.93;;;;;;;3.32;86.38;94600.59;5096627;28;20203;-68
2021/11/29 01:52:49;;;;;;;7.83;2.40;;;;;;;3.36;86.83;94594.88;5096191;28;20199;-68
2021/11/29 01:55:16;;;;;;;1.43;1.33;;;;;;;3.21;87.04;94598.41;5096586;28;20226;-69
2021/11/29 01:57:43;;;;;;;3.13;1.73;;;;;;;3.37;86.09;94600.88;5096392;28;21156;-69
2021/11/29 02:00:14;;;;;;;2.60;1.97;;;;;;;3.54;86.54;94602.38;5096661;28;20667;-68
2021/11/29 02:02:42;;;;;;;1.20;1.07;;;;;;;3.14;87.27;94606.09;5096029;28;20204;-69
2021/11/29 02:05:09;;;;;;;1.00;0.90;;;;;;;3.14;86.67;94613.91;5097326;28;20230;-69
2021/11/29 02:07:36;;;;;;;10.57;2.00;;;;;;;3.11;86.98;94613.41;5097352;28;20880;-69
2021/11/29 02:10:05;;;;;;;1.30;1.07;;;;;;;3.36;87.47;94607.06;5097327;28;20202;-69
2021/11/29 02:12:31;;;;;;;1.33;1.20;;;;;;;3.11;86.97;94616.03;5096520;28;20201;-69
2021/11/29 02:14:58;;;;;;;1.60;1.50;;;;;;;3.15;86.89;94612.09;5098098;27;20626;-69
2021/11/29 02:17:24;;;;;;;10.30;1.13;;;;;;;2.87;87.40;94623.94;5096794;28;20198;-69
2021/11/29 02:19:53;;;;;;;4.03;2.83;;;;;;;2.90;88.98;94622.78;5095928;28;20580;-69
2021/11/29 02:22:21;;;;;;;2.93;1.93;;;;;;;3.11;88.29;94619.41;5097025;28;20577;-69
2021/11/29 02:24:47;;;;;;;3.17;1.70;;;;;;;3.00;88.02;94615.59;5097549;28;20223;-69
2021/11/29 02:27:14;;;;;;;1.80;1.20;;;;;;;3.02;86.96;94617.03;5096517;28;20549;-69
2021/11/29 02:29:41;;;;;;;2.07;1.30;;;;;;;2.90;87.50;94626.19;5097020;28;20427;-69
2021/11/29 02:32:09;;;;;;;1.47;1.37;;;;;;;3.13;86.68;94637.47;5097062;28;20305;-69
2021/11/29 02:34:36;;;;;;;3.47;1.87;;;;;;;3.05;86.91;94634.91;5096772;28;20581;-69
2021/11/29 02:37:06;;;;;;;0.90;0.67;;;;;;;3.31;87.09;94627.59;5096781;28;20224;-69
2021/11/29 02:39:35;;;;;;;2.37;2.10;;;;;;;3.26;87.28;94637.72;5096463;28;20968;-69
2021/11/29 02:42:05;;;;;;;1.63;1.50;;;;;;;3.31;86.98;94641.44;5096298;28;20750;-69
2021/11/29 02:44:32;;;;;;;1.90;1.53;;;;;;;3.02;86.88;94641.25;5096471;28;20223;-69
2021/11/29 02:46:58;;;;;;;2.57;1.30;;;;;;;3.06;87.23;94646.94;5094075;28;20207;-69
2021/11/29 02:49:25;;;;;;;3.23;2.20;;;;;;;3.02;87.95;94641.25;5095811;28;20198;-68
2021/11/29 02:51:53;;;;;;;2.70;1.27;;;;;;;3.44;87.17;94639.06;5096626;28;20215;-69
2021/11/29 02:54:24;;;;;;;1.67;1.57;;;;;;;3.59;86.38;94637.34;5096343;28;21250;-69
2021/11/29 02:56:54;;;;;;;0.97;0.97;;;;;;;3.57;86.85;94641.91;5096562;28;20211;-68
2021/11/29 02:59:23;;;;;;;4.37;3.30;;;;;;;3.58;86.51;94645.31;5096023;28;20269;-69
2021/11/29 03:01:51;;;;;;;2.90;1.53;;;;;;;3.57;86.52;94646.31;5097105;28;20198;-69
2021/11/29 03:04:19;;;;;;;11.43;2.10;;;;;;;3.45;86.62;94652.88;5096230;28;20225;-69
2021/11/29 03:06:46;;;;;;;1.97;1.40;;;;;;;3.29;86.31;94653.78;5096350;28;20288;-69
2021/11/29 03:09:13;;;;;;;1.50;1.37;;;;;;;3.29;86.64;94655.59;5097337;28;20198;-69
2021/11/29 03:11:40;;;;;;;2.63;1.23;;;;;;;3.30;86.81;94655.44;5096983;28;20206;-68
2021/11/29 03:14:08;;;;;;;4.57;1.80;;;;;;;3.55;86.94;94654.28;5095323;28;20231;-69
2021/11/29 03:16:35;;;;;;;1.33;1.23;;;;;;;3.33;87.29;94662.09;5096454;28;20211;-69
2021/11/29 03:19:02;;;;;;;11.57;3.40;;;;;;;3.24;88.17;94668.31;5096137;28;20229;-69
2021/11/29 03:21:29;;;;;;;3.50;2.13;;;;;;;3.55;87.65;94675.09;5096284;28;20206;-69
2021/11/29 03:23:59;;;;;;;4.80;2.17;;;;;;;3.64;87.06;94667.09;5095563;28;20229;-69
2021/11/29 03:26:27;;;;;;;3.33;2.17;;;;;;;3.65;86.94;94675.69;5096198;28;20207;-69
2021/11/29 03:28:56;;;;;;;2.83;2.10;;;;;;;3.63;86.09;94678.47;5095905;28;20536;-69
2021/11/29 03:31:25;;;;;;;1.80;1.70;;;;;;;3.70;86.70;94689.00;5095906;28;20258;-68
2021/11/29 03:33:55;;;;;;;3.90;2.33;;;;;;;3.39;86.96;94690.03;5096554;28;20225;-69
2021/11/29 03:36:23;;;;;;;3.03;2.07;;;;;;;3.56;87.42;94691.56;5096547;28;20255;-69
2021/11/29 03:38:49;;;;;;;11.23;2.63;;;;;;;3.44;86.69;94692.94;5095686;28;20223;-69
2021/11/29 03:41:16;;;;;;;2.90;1.40;;;;;;;3.36;86.97;94695.56;5096083;28;20688;-69
2021/11/29 03:43:42;;;;;;;4.47;2.60;;;;;;;3.20;87.13;94691.25;5095676;28;20210;-69
2021/11/29 03:46:09;;;;;;;1.70;1.53;;;;;;;3.37;86.91;94705.00;5096179;28;20667;-69
2021/11/29 03:48:37;;;;;;;4.03;2.13;;;;;;;3.71;86.91;94712.28;5093617;28;20204;-68
2021/11/29 03:51:05;;;;;;;2.77;2.30;;;;;;;3.64;87.33;94706.16;5092826;28;20701;-67
2021/11/29 03:53:31;;;;;;;1.93;1.77;;;;;;;3.51;87.27;94717.31;5095761;28;20202;-68
2021/11/29 03:55:58;;;;;;;6.83;3.23;;;;;;;3.54;87.77;94709.13;5096123;28;20671;-68
2021/11/29 03:58:25;;;;;;;3.37;2.43;;;;;;;3.44;87.61;94714.56;5096286;28;20809;-66
2021/11/29 04:00:52;;;;;;;7.83;3.10;;;;;;;3.24;88.47;94715.97;5096452;28;20618;-67
2021/11/29 04:03:18;;;;;;;2.80;2.57;;;;;;;3.27;88.27;94715.63;5098847;28;20199;-69
2021/11/29 04:05:47;;;;;;;5.30;2.30;;;;;;;3.24;89.24;94720.38;5100612;28;20972;-65
2021/11/29 04:08:13;;;;;;;8.27;3.93;;;;;;;3.12;89.06;94724.34;5100263;28;20577;-67
2021/11/29 04:10:40;;;;;;;4.10;2.73;;;;;;;3.14;89.67;94724.97;5100364;28;20202;-66
2021/11/29 04:13:07;;;;;;;2.70;1.83;;;;;;;3.03;89.85;94720.94;5099626;28;20213;-66
2021/11/29 04:15:34;;;;;;;2.57;2.37;;;;;;;3.14;89.34;94727.56;5100163;28;20217;-67
2021/11/29 04:18:00;;;;;;;9.07;3.40;;;;;;;3.04;89.98;94730.38;5099697;28;20203;-68
2021/11/29 04:20:27;;;;;;;3.70;3.10;;;;;;;2.95;91.20;94733.16;5100096;28;20245;-71
2021/11/29 04:22:55;;;;;;;2.97;2.53;;;;;;;3.18;90.96;94739.25;5099584;27;20213;-70
2021/11/29 04:25:25;;;;;;;4.00;3.17;;;;;;;3.22;90.80;94740.53;5100049;28;20218;-68
2021/11/29 04:27:53;;;;;;;1.90;1.23;;;;;;;2.89;92.43;94741.66;5100162;27;20206;-68
2021/11/29 04:30:23;;;;;;;3.10;1.83;;;;;;;3.07;91.59;94743.03;5100192;28;20210;-66
2021/11/29 04:32:52;;;;;;;2.53;2.30;;;;;;;3.20;91.15;94750.31;5099400;28;20200;-68
2021/11/29 04:35:19;;;;;;;3.90;3.60;;;;;;;3.25;90.31;94748.03;5098969;28;20222;-66
2021/11/29 04:37:46;;;;;;;2.87;2.63;;;;;;;2.84;91.37;94756.94;5099880;28;21146;-67
2021/11/29 04:40:14;;;;;;;0.83;0.83;;;;;;;3.06;90.89;94758.81;5100074;28;20223;-70
2021/11/29 04:42:41;;;;;;;1.87;1.77;;;;;;;2.83;90.72;94762.31;5099249;28;20198;-66
2021/11/29 04:45:09;;;;;;;5.20;2.00;;;;;;;2.97;90.78;94761.63;5099150;28;20721;-69
2021/11/29 04:47:35;;;;;;;4.00;2.07;;;;;;;2.86;90.64;94760.16;5097299;28;21209;-67
2021/11/29 04:50:02;;;;;;;1.87;1.70;;;;;;;2.93;89.72;94768.09;5099522;28;20202;-68
2021/11/29 04:52:28;;;;;;;1.67;1.53;;;;;;;2.92;89.51;94769.91;5098337;28;20236;-67
2021/11/29 04:54:55;;;;;;;2.73;2.33;;;;;;;2.83;89.70;94776.13;5099153;28;20746;-68
2021/11/29 04:57:23;;;;;;;4.00;1.47;;;;;;;3.12;90.21;94782.38;5099704;28;20208;-67
2021/11/29 04:59:49;;;;;;;2.20;1.73;;;;;;;3.00;89.35;94788.09;5098773;28;20715;-68
2021/11/29 05:02:16;;;;;;;3.87;2.67;;;;;;;2.72;90.07;94788.66;5098431;27;20226;-67
2021/11/29 05:04:46;;;;;;;1.80;1.53;;;;;;;2.95;88.98;94790.38;5099296;28;20252;-68
2021/11/29 05:07:12;;;;;;;4.37;1.87;;;;;;;3.01;88.77;94794.94;5099361;27;20199;-67
2021/11/29 05:09:40;;;;;;;3.57;2.47;;;;;;;3.13;88.41;94796.19;5103514;28;20597;-68
2021/11/29 05:12:08;;;;;;;1.97;1.43;;;;;;;3.39;87.68;94804.59;5098849;28;20205;-68
2021/11/29 05:14:36;;;;;;;3.23;1.97;;;;;;;3.39;88.22;94807.97;5098559;28;20219;-68
2021/11/29 05:17:03;;;;;;;3.47;1.93;;;;;;;3.30;88.15;94811.59;5099644;28;21167;-68
2021/11/29 05:19:29;;;;;;;2.20;1.80;;;;;;;3.15;88.16;94802.06;5098554;28;20221;-68
2021/11/29 05:21:55;;;;;;;1.97;1.07;;;;;;;3.08;87.80;94811.47;5098250;28;20206;-68
2021/11/29 05:24:22;;;;;;;1.77;1.53;;;;;;;3.15;87.37;94813.25;5097733;28;20236;-68
2021/11/29 05:26:48;;;;;;;5.43;2.60;;;;;;;3.14;87.24;94816.84;5098303;28;20201;-68
2021/11/29 05:29:15;;;;;;;3.00;2.17;;;;;;;3.07;87.53;94822.91;5098608;28;20205;-68
2021/11/29 05:31:43;;;;;;;4.17;2.03;;;;;;;3.28;87.38;94821.34;5098430;28;20244;-68
2021/11/29 05:34:10;;;;;;;5.87;2.53;;;;;;;3.01;87.31;94834.75;5097595;28;20215;-68
2021/11/29 05:36:50;;;;;;;2.57;1.13;;;;;;;3.16;87.88;94834.91;5098396;28;20492;-68
2021/11/29 05:39:17;;;;;;;7.93;3.17;;;;;;;2.91;87.35;94835.13;5097870;28;20223;-67
2021/11/29 05:41:44;;;;;;;5.60;2.07;;;;;;;2.88;87.47;94838.03;5098390;28;20206;-68
2021/11/29 05:44:12;;;;;;;1.23;1.13;;;;;;;2.87;87.95;94839.03;5097454;28;20230;-68
2021/11/29 05:46:38;;;;;;;1.10;1.00;;;;;;;2.71;87.96;94846.81;5097810;27;20211;-68
2021/11/29 05:49:06;;;;;;;1.17;1.07;;;;;;;2.96;87.90;94843.25;5096046;28;20202;-68
2021/11/29 05:51:33;;;;;;;3.43;1.43;;;;;;;2.80;87.29;94848.44;5098302;27;20199;-68
2021/11/29 05:53:59;;;;;;;2.03;1.93;;;;;;;2.81;87.26;94853.47;5096405;28;20766;-68
2021/11/29 05:56:26;;;;;;;2.37;1.87;;;;;;;2.71;87.31;94863.25;5098091;28;20203;-68
2021/11/29 05:58:53;;;;;;;6.37;2.73;;;;;;;2.64;87.63;94869.28;5098395;28;20227;-68
2021/11/29 06:01:21;;;;;;;4.70;2.57;;;;;;;2.78;87.17;94873.81;5097301;28;20198;-68
2021/11/29 06:03:48;;;;;;;6.47;2.93;;;;;;;2.70;86.60;94874.63;5096431;28;20205;-68
2021/11/29 06:06:16;;;;;;;6.17;3.00;;;;;;;2.93;87.32;94880.78;5098508;28;20571;-68
2021/11/29 06:08:42;;;;;;;2.10;1.63;;;;;;;2.72;87.42;94887.47;5098166;28;20577;-68
2021/11/29 06:11:09;;;;;;;2.17;1.97;;;;;;;2.59;87.42;94877.53;5096945;28;20667;-68
2021/11/29 06:13:35;;;;;;;2.70;2.47;;;;;;;2.67;87.41;94881.94;5097197;28;20243;-68
2021/11/29 06:16:02;;;;;;;2.07;1.90;;;;;;;2.69;86.86;94888.59;5097665;28;20206;-70
2021/11/29 06:18:29;;;;;;;4.07;3.40;;;;;;;2.60;87.16;94893.97;5096988;28;20203;-68
2021/11/29 06:20:55;;;;;;;4.10;2.17;;;;;;;2.69;86.23;94893.78;5097368;28;20236;-68
2021/11/29 06:23:23;;;;;;;8.33;3.10;;;;;;;2.88;86.62;94898.69;5096767;28;20197;-69
2021/11/29 06:25:49;;;;;;;8.37;5.10;;;;;;;2.63;86.18;94904.03;5097427;27;20230;-67
2021/11/29 06:28:16;;;;;;;1.20;1.10;;;;;;;2.64;85.80;94906.47;5098392;28;20199;-72
2021/11/29 06:30:42;;;;;;;2.97;2.13;;;;;;;2.70;86.15;94913.63;5098413;28;20199;-70
2021/11/29 06:33:09;;;;;;;3.37;2.40;;;;;;;2.64;86.14;94916.88;5097376;28;20211;-72
2021/11/29 06:35:35;;;;;;;5.03;3.30;;;;;;;2.61;86.27;94924.16;5098410;28;20218;-67
2021/11/29 06:38:05;;;;;;;4.93;3.07;;;;;;;2.84;86.52;94920.78;5097842;28;20231;-67
2021/11/29 06:40:35;;;;;;;7.20;2.60;;;;;;;2.85;86.29;94935.44;5097382;28;20846;-69
2021/11/29 06:43:02;;;;;;;7.77;2.90;;;;;;;2.61;86.69;94940.59;5096817;28;20286;-67
2021/11/29 06:45:28;;;;;;;6.90;4.97;;;;;;;2.78;85.47;94949.25;5098057;28;20218;-70
2021/11/29 06:47:55;;;;;;;3.13;2.73;;;;;;;2.99;84.93;94947.75;5094226;28;20213;-67
2021/11/29 06:50:22;;;;;;;4.90;3.13;;;;;;;2.93;85.27;94953.63;5097894;28;20200;-71
2021/11/29 06:52:49;;;;;;;1.63;1.53;;;;;;;2.91;85.22;94960.78;5097322;28;20248;-71
2021/11/29 06:55:18;;;;;;;4.40;2.33;;;;;;;3.02;85.07;94963.06;5096947;28;20499;-67
2021/11/29 06:57:45;;;;;;;6.63;3.80;;;;;;;3.07;85.09;94972.00;5097833;28;20199;-71
2021/11/29 07:00:15;;;;;;;6.40;3.67;;;;;;;3.16;84.98;94975.44;5097221;28;20226;-67
2021/11/29 07:02:43;;;;;;;3.23;2.97;;;;;;;2.75;85.73;94981.56;5097179;28;20656;-67
2021/11/29 07:05:10;;;;;;;5.37;3.60;;;;;;;2.74;85.98;94985.16;5097637;28;20710;-71
2021/11/29 07:07:37;;;;;;;7.27;5.27;;;;;;;2.66;86.39;94986.91;5097949;28;20199;-67
2021/11/29 07:10:05;;;;;;;23.40;10.00;;;;;;;2.84;86.08;94991.03;5097405;28;20218;-70
2021/11/29 07:12:32;;;;;;;16.20;6.70;;;;;;;2.74;86.56;94997.34;5096682;28;20212;-70
2021/11/29 07:15:00;;;;;;;8.80;4.03;;;;;;;2.83;86.76;95005.00;5098872;28;20618;-68
2021/11/29 07:17:26;;;;;;;6.77;4.77;;;;;;;2.79;85.67;95003.69;5098277;28;20196;-68
2021/11/29 07:19:53;;;;;;;7.43;5.17;;;;;;;2.91;85.32;95002.41;5097585;28;20223;-69
2021/11/29 07:22:20;;;;;;;12.80;4.33;;;;;;;3.04;85.30;95013.13;5097125;28;20279;-69
2021/11/29 07:24:48;;;;;;;9.87;5.80;;;;;;;3.14;84.24;95019.00;5097701;28;20308;-68
2021/11/29 07:27:14;;;;;;;10.10;5.33;;;;;;;3.01;84.50;95019.47;5096949;28;20265;-69
2021/11/29 07:29:41;;;;;;;2.60;2.20;;;;;;;3.11;84.21;95014.94;5097575;28;20199;-67
2021/11/29 07:32:09;;;;;;;4.10;3.67;;;;;;;3.43;83.17;95012.34;5096185;28;20205;-68
2021/11/29 07:34:36;;;;;;;8.23;3.27;;;;;;;3.27;83.20;95017.56;5097113;28;20344;-68
2021/11/29 07:37:03;;;;;;;9.47;4.83;;;;;;;3.36;82.51;95018.34;5096381;28;20310;-69
2021/11/29 07:39:29;;;;;;;10.33;5.07;;;;;;;3.22;82.78;95022.44;5100442;28;20219;-68
2021/11/29 07:41:58;;;;;;;6.70;4.77;;;;;;;3.43;82.25;95024.56;5099567;28;20210;-68
2021/11/29 07:44:25;;;;;;;6.37;3.43;;;;;;;3.33;82.77;95023.91;5099134;28;21289;-69
2021/11/29 07:46:52;;;;;;;10.17;5.83;;;;;;;3.50;82.29;95031.56;5100214;28;20225;-69
2021/11/29 07:49:19;;;;;;;2.70;2.37;;;;;;;3.53;82.79;95031.22;5100453;27;20211;-68
2021/11/29 07:51:46;;;;;;;8.80;4.30;;;;;;;3.56;82.38;95037.88;5099959;28;20192;-68
2021/11/29 07:54:12;;;;;;;9.30;3.57;;;;;;;3.48;82.66;95043.09;5100580;27;20229;-69
2021/11/29 07:56:39;;;;;;;6.57;3.70;;;;;;;3.12;83.34;95041.78;5097878;28;20226;-68
2021/11/29 07:59:05;;;;;;;7.67;4.33;;;;;;;3.53;82.98;95039.03;5099838;28;21025;-68
2021/11/29 08:01:32;;;;;;;4.73;3.40;;;;;;;3.50;83.59;95044.56;5100349;28;20948;-68
2021/11/29 08:03:58;;;;;;;4.63;2.80;;;;;;;3.63;83.00;95045.69;5099322;28;20227;-68
2021/11/29 08:06:26;;;;;;;6.13;3.57;;;;;;;3.86;83.38;95053.66;5099401;28;20206;-68
2021/11/29 08:08:52;;;;;;;7.60;3.63;;;;;;;3.31;83.99;95057.91;5099537;28;20207;-68
2021/11/29 08:11:19;;;;;;;5.67;3.40;;;;;;;3.47;84.20;95062.31;5099904;28;20191;-68
2021/11/29 08:13:45;;;;;;;4.83;2.87;;;;;;;3.43;84.38;95066.22;5098407;28;20203;-69
2021/11/29 08:16:13;;;;;;;4.97;3.43;;;;;;;3.44;84.47;95067.84;5099294;28;20713;-68
2021/11/29 08:18:40;;;;;;;4.10;2.77;;;;;;;3.62;84.41;95072.69;5099646;28;20213;-68
2021/11/29 08:21:06;;;;;;;9.83;3.60;;;;;;;3.62;84.05;95077.91;5099766;28;20226;-69
2021/11/29 08:23:34;;;;;;;5.20;3.20;;;;;;;3.76;85.17;95079.84;5098697;28;20191;-68
2021/11/29 08:26:01;;;;;;;8.67;3.30;;;;;;;3.55;85.27;95080.53;5099495;28;20214;-68
2021/11/29 08:28:28;;;;;;;9.27;4.13;;;;;;;3.62;85.60;95078.91;5099533;28;20203;-68
2021/11/29 08:30:55;;;;;;;8.67;4.07;;;;;;;3.44;86.67;95091.28;5100461;28;20195;-71
2021/11/29 08:33:22;;;;;;;3.50;2.43;;;;;;;3.38;86.60;95097.13;5104462;28;20206;-68
2021/11/29 08:35:48;;;;;;;6.03;2.17;;;;;;;3.24;87.80;95097.75;5105153;28;20227;-67
2021/11/29 08:38:15;;;;;;;3.03;2.77;;;;;;;3.15;89.09;95102.13;5104460;28;20206;-68
2021/11/29 08:40:45;;;;;;;6.93;4.33;;;;;;;3.37;89.57;95104.09;5102073;28;20227;-68
2021/11/29 08:43:16;;;;;;;4.03;3.63;;;;;;;3.37;90.08;95104.09;5103410;28;20198;-68
2021/11/29 08:45:42;;;;;;;3.70;3.37;;;;;;;3.24;89.65;95108.16;5102830;28;20662;-68
2021/11/29 08:48:11;;;;;;;6.13;2.73;;;;;;;3.33;90.89;95104.59;5102510;28;20643;-69
2021/11/29 08:50:40;;;;;;;4.10;2.80;;;;;;;3.44;91.46;95112.91;5102342;28;20209;-70
2021/11/29 08:53:09;;;;;;;6.70;3.00;;;;;;;3.46;91.29;95112.75;5102346;28;20199;-68
2021/11/29 08:55:36;;;;;;;4.03;3.13;;;;;;;3.28;92.50;95128.50;5102356;28;20231;-70
2021/11/29 08:58:08;;;;;;;6.47;3.73;;;;;;;3.30;93.65;95126.56;5100949;28;20234;-67
2021/11/29 09:00:36;;;;;;;3.27;2.13;;;;;;;3.29;93.60;95124.13;5103160;28;20213;-70
2021/11/29 09:03:06;;;;;;;5.97;3.70;;;;;;;3.45;92.81;95137.97;5103378;28;20206;-67
2021/11/29 09:05:33;;;;;;;5.53;3.40;;;;;;;3.31;93.71;95142.97;5101738;28;20232;-67
2021/11/29 09:08:00;;;;;;;4.17;2.57;;;;;;;3.26;93.11;95145.25;5103298;28;20202;-69
2021/11/29 09:10:27;;;;;;;1.47;1.37;;;;;;;3.28;92.99;95151.13;5102699;28;20225;-69
2021/11/29 09:12:54;;;;;;;3.10;2.77;;;;;;;3.22;93.37;95155.19;5101560;28;20195;-70
2021/11/29 09:15:22;;;;;;;1.27;1.17;;;;;;;3.39;93.73;95159.44;5102287;28;20219;-69
2021/11/29 09:17:50;;;;;;;4.43;3.40;;;;;;;3.51;92.23;95162.56;5100185;27;20651;-67
2021/11/29 09:20:19;;;;;;;5.23;3.23;;;;;;;3.62;92.23;95168.25;5102928;28;20211;-70
2021/11/29 09:22:45;;;;;;;3.57;3.23;;;;;;;3.30;92.05;95172.59;5104292;28;20202;-68
2021/11/29 09:25:12;;;;;;;5.17;2.73;;;;;;;3.36;91.70;95174.56;5104504;28;20241;-69
2021/11/29 09:27:39;;;;;;;5.23;1.50;;;;;;;3.23;91.90;95184.59;5103484;28;20211;-68
2021/11/29 09:30:08;;;;;;;2.33;1.40;;;;;;;3.41;91.42;95177.50;5102361;28;20216;-71
2021/11/29 09:32:38;;;;;;;8.60;3.53;;;;;;;4.00;89.96;95186.69;5102072;28;20203;-69
2021/11/29 09:35:06;;;;;;;2.60;2.40;;;;;;;4.16;88.97;95186.66;5102674;28;20305;-69
2021/11/29 09:37:35;;;;;;;1.53;1.33;;;;;;;4.02;87.64;95184.75;5097546;28;20701;-67
2021/11/29 09:40:02;;;;;;;7.33;3.80;;;;;;;3.90;87.73;95186.03;5101266;28;20252;-69
2021/11/29 09:42:29;;;;;;;6.73;2.60;;;;;;;4.11;86.38;95191.59;5101180;28;20194;-70
2021/11/29 09:44:55;;;;;;;3.10;1.90;;;;;;;3.78;85.50;95187.34;5101135;28;20999;-67
2021/11/29 09:47:22;;;;;;;7.00;1.60;;;;;;;3.81;84.96;95192.22;5101342;28;20217;-68
2021/11/29 09:49:54;;;;;;;4.93;2.93;;;;;;;4.10;83.98;95195.16;5101008;28;20212;-72
2021/11/29 09:52:20;;;;;;;3.50;2.60;;;;;;;3.78;84.45;95202.97;5099867;28;20726;-68
2021/11/29 09:54:47;;;;;;;2.70;2.07;;;;;;;3.88;83.23;95206.25;5099213;28;20748;-70
2021/11/29 09:57:14;;;;;;;14.63;2.87;;;;;;;3.96;82.67;95203.63;5096477;28;20195;-67
2021/11/29 09:59:41;;;;;;;1.63;1.53;;;;;;;3.84;81.94;95202.28;5099867;28;20199;-71
2021/11/29 10:02:12;;;;;;;1.00;1.00;;;;;;;3.89;82.01;95204.44;5099615;28;20217;-73
2021/11/29 10:04:39;;;;;;;2.03;1.63;;;;;;;3.59;82.25;95212.03;5099784;28;20217;-74
2021/11/29 10:07:07;;;;;;;3.83;1.77;;;;;;;3.94;82.94;95213.38;5098053;28;20205;-69
2021/11/29 10:09:36;;;;;;;1.30;1.20;;;;;;;3.91;82.93;95218.13;5098341;28;20205;-70
2021/11/29 10:12:28;;;;;;;1.80;1.07;;;;;;;4.05;81.94;95215.69;5099002;28;20200;-68
2021/11/29 10:15:19;;;;;;;3.53;2.33;;;;;;;4.01;82.72;95213.56;5098181;28;20255;-68
2021/11/29 10:17:47;;;;;;;6.47;2.07;;;;;;;3.59;83.24;95217.25;5098530;28;20290;-72
2021/11/29 10:20:14;;;;;;;1.17;1.07;;;;;;;3.57;83.05;95216.59;5098346;28;20218;-70
2021/11/29 10:22:56;;;;;;;3.40;2.03;;;;;;;3.95;82.51;95220.22;5097094;28;20206;-69
2021/11/29 10:25:23;;;;;;;4.13;1.98;;;;;;;3.54;84.64;95216.91;5097847;28;20442;-68
2021/11/29 10:27:50;;;;;;;6.83;3.37;;;;;;;3.67;82.81;95223.28;5098966;28;20212;-68
2021/11/29 10:30:17;;;;;;;2.60;1.33;;;;;;;3.85;83.05;95226.59;5098101;28;20195;-70
2021/11/29 10:32:46;;;;;;;0.90;0.90;;;;;;;4.08;83.12;95228.38;5097048;28;20205;-70
2021/11/29 10:35:15;;;;;;;3.67;2.03;;;;;;;3.65;81.98;95228.66;5099083;28;20216;-72
2021/11/29 10:37:46;;;;;;;3.43;2.10;;;;;;;4.03;81.49;95235.88;5098536;28;20197;-69
2021/11/29 10:40:16;;;;;;;1.30;1.20;;;;;;;4.05;80.98;95236.53;5100774;28;20191;-72
2021/11/29 10:42:42;;;;;;;1.67;1.57;;;;;;;3.83;80.42;95237.16;5098268;28;20277;-69
2021/11/29 10:45:20;;;;;;;2.80;2.60;;;;;;;4.17;79.80;95243.06;5097888;28;20226;-70
2021/11/29 10:47:48;;;;;;;3.17;1.70;;;;;;;3.98;79.32;95248.56;5097963;28;20204;-68
2021/11/29 10:50:15;;;;;;;1.73;1.47;;;;;;;3.55;78.15;95255.00;5097360;28;20211;-67
2021/11/29 10:52:46;;;;;;;26.07;1.33;;;;;;;3.54;77.95;95255.97;5097437;28;20205;-68
2021/11/29 10:55:12;;;;;;;1.50;1.33;;;;;;;3.27;77.03;95264.00;5096625;28;20237;-69
2021/11/29 10:57:46;;;;;;;0.80;0.80;;;;;;;3.66;76.46;95261.53;5095751;28;20199;-67
2021/11/29 11:00:17;;;;;;;5.53;2.63;;;;;;;3.73;77.14;95267.75;5097312;28;20282;-67
2021/11/29 11:03:00;;;;;;;1.33;1.00;;;;;;;3.80;76.84;95262.72;5098758;28;20197;-70
2021/11/29 11:05:26;;;;;;;1.50;1.40;;;;;;;3.62;78.54;95269.03;5098812;28;20215;-70
2021/11/29 11:08:07;;;;;;;2.20;0.93;;;;;;;4.16;77.68;95266.69;5098886;28;20202;-70
2021/11/29 11:10:35;;;;;;;3.33;1.87;;;;;;;4.16;77.68;95274.50;5098864;28;20283;-73
2021/11/29 11:13:02;;;;;;;1.33;1.10;;;;;;;3.77;77.03;95276.06;5102182;28;20212;-67
2021/11/29 11:15:31;;;;;;;4.10;1.90;;;;;;;3.86;77.28;95272.50;5102825;28;20578;-67
2021/11/29 11:17:58;;;;;;;2.23;1.43;;;;;;;3.59;76.99;95291.00;5101317;27;20227;-67
2021/11/29 11:20:25;;;;;;;5.70;1.90;;;;;;;4.10;77.46;95275.13;5101797;28;20203;-71
2021/11/29 11:22:55;;;;;;;1.70;0.93;;;;;;;4.14;77.72;95287.69;5102255;27;20234;-69
2021/11/29 11:25:24;;;;;;;4.40;2.30;;;;;;;4.10;76.62;95280.34;5100569;28;20747;-68
2021/11/29 11:27:56;;;;;;;0.70;0.70;;;;;;;4.28;75.51;95280.03;5099768;27;20219;-69
2021/11/29 11:30:24;;;;;;;2.13;1.70;;;;;;;3.99;76.13;95283.28;5100678;28;20598;-69
2021/11/29 11:32:56;;;;;;;1.23;1.00;;;;;;;4.53;76.66;95291.28;5097455;28;20217;-70
2021/11/29 11:35:27;;;;;;;1.60;1.33;;;;;;;4.52;76.93;95292.25;5097911;28;20226;-65
2021/11/29 11:37:56;;;;;;;1.00;1.00;;;;;;;4.54;74.98;95295.53;5098948;28;20986;-66
2021/11/29 11:40:26;;;;;;;2.70;1.77;;;;;;;4.41;74.88;95296.00;5099638;28;20207;-67
2021/11/29 11:42:53;;;;;;;0.87;0.87;;;;;;;4.40;75.39;95304.00;5096447;28;20203;-67
2021/11/29 11:45:23;;;;;;;2.27;1.57;;;;;;;4.31;75.39;95303.19;5099157;28;20225;-68